Bluegrove, Texas
Current Conditions -  °F | °C
As of 2:35 PM on Thursday 27 Nov 2014 (Local Time) from KCWC Reporting Station
Clear Clear  
Wind Chill: 55°   Ceiling: Unl
Heat Index: 55°   Visibility: 10mi
Dew Point: 23°   Wind: 5mph
Humidity: 29%   Direction: 190°S
Pressure: 30.43"   Gusts: NA
Location:  33.67°N, 98.23°W
Report Text: KCWC 272035Z AUTO 19004KT 10SM CLR 13/M05 A3043 RMK AO2 T01261050
Loading
Personal Weather Stations






























Interactive Weather Map New forecast layout! Learn more

10-Day Weather Forecast

Advertisements
Track Severe Weather on mobile